createdAt,value
2019-01-17T00:00:31.555Z,8.50
2019-01-17T00:03:02.632Z,8.50
2019-01-17T00:05:30.577Z,8.50
2019-01-17T00:07:58.528Z,8.50
2019-01-17T00:10:38.195Z,8.50
2019-01-17T00:13:08.919Z,8.60
2019-01-17T00:15:53.539Z,8.60
2019-01-17T00:18:38.380Z,8.60
2019-01-17T00:21:15.163Z,8.50
2019-01-17T00:23:55.134Z,8.50
2019-01-17T00:26:26.139Z,8.50
2019-01-17T00:28:57.068Z,8.50
2019-01-17T00:31:31.455Z,8.50
2019-01-17T00:34:14.257Z,8.40
2019-01-17T00:36:54.577Z,8.40
2019-01-17T00:39:25.047Z,8.40
2019-01-17T00:42:04.797Z,8.30
2019-01-17T00:44:47.815Z,8.30
2019-01-17T00:47:15.752Z,8.30
2019-01-17T00:50:00.345Z,8.30
2019-01-17T00:52:28.283Z,8.30
2019-01-17T00:55:12.830Z,8.30
2019-01-17T00:57:40.779Z,8.20
2019-01-17T01:00:29.453Z,8.20
2019-01-17T01:03:03.355Z,8.20
2019-01-17T01:05:37.152Z,8.20
2019-01-17T01:08:21.464Z,8.20
2019-01-17T01:10:55.503Z,8.20
2019-01-17T01:13:32.543Z,8.20
2019-01-17T01:16:07.091Z,8.10
2019-01-17T01:18:44.055Z,8.10
2019-01-17T01:21:18.063Z,8.10
2019-01-17T01:23:57.795Z,8.10
2019-01-17T01:26:31.856Z,8.10
2019-01-17T01:29:05.443Z,8.10
2019-01-17T01:31:36.194Z,8.00
2019-01-17T01:34:27.201Z,8.00
2019-01-17T01:36:58.031Z,8.10
2019-01-17T01:39:28.772Z,8.00
2019-01-17T01:41:56.823Z,8.00
2019-01-17T01:44:27.792Z,8.00
2019-01-17T01:46:58.287Z,8.00
2019-01-17T01:49:41.303Z,8.00
2019-01-17T01:52:09.250Z,7.90
2019-01-17T01:54:35.292Z,7.90
2019-01-17T01:57:01.349Z,7.90
2019-01-17T01:59:27.389Z,7.90
2019-01-17T02:01:53.451Z,7.90
2019-01-17T02:04:19.818Z,7.90
2019-01-17T02:06:45.853Z,7.90
2019-01-17T02:09:11.930Z,7.90
2019-01-17T02:11:38.052Z,7.90
2019-01-17T02:14:05.408Z,7.90
2019-01-17T02:16:31.777Z,7.90
2019-01-17T02:18:57.839Z,7.90
2019-01-17T02:21:23.882Z,7.90
2019-01-17T02:23:49.927Z,7.90
2019-01-17T02:26:15.985Z,7.90
2019-01-17T02:28:42.018Z,7.90
2019-01-17T02:31:08.638Z,7.90
2019-01-17T02:33:34.696Z,7.90
2019-01-17T02:36:00.750Z,7.90
2019-01-17T02:38:26.883Z,7.80
2019-01-17T02:40:52.954Z,7.80
2019-01-17T02:43:19.360Z,7.80
2019-01-17T02:45:45.406Z,7.80
2019-01-17T02:48:11.815Z,7.80
2019-01-17T02:50:37.868Z,7.80
2019-01-17T02:53:04.105Z,7.80
2019-01-17T02:55:30.508Z,7.80
2019-01-17T02:57:56.544Z,7.80
2019-01-17T03:00:22.596Z,7.80
2019-01-17T03:02:48.652Z,7.80
2019-01-17T03:05:14.697Z,7.80
2019-01-17T03:07:40.943Z,7.80
2019-01-17T03:10:10.703Z,7.80
2019-01-17T03:12:36.747Z,7.80
2019-01-17T03:15:05.444Z,7.80
2019-01-17T03:17:31.508Z,7.80
2019-01-17T03:19:57.545Z,7.80
2019-01-17T03:22:23.587Z,7.80
2019-01-17T03:24:49.663Z,7.70
2019-01-17T03:27:15.709Z,7.80
2019-01-17T03:29:41.756Z,7.80
2019-01-17T03:32:07.826Z,7.80
2019-01-17T03:34:33.860Z,7.80
2019-01-17T03:36:59.900Z,7.80
2019-01-17T03:39:25.963Z,7.80
2019-01-17T03:41:52.312Z,7.80
2019-01-17T03:44:18.348Z,7.80
2019-01-17T03:46:44.405Z,7.80
2019-01-17T03:49:10.449Z,7.80
2019-01-17T03:51:36.920Z,7.80
2019-01-17T03:54:03.185Z,7.80
2019-01-17T03:56:29.220Z,7.80
2019-01-17T03:58:55.259Z,7.80
2019-01-17T04:01:21.319Z,7.80
2019-01-17T04:03:47.377Z,7.80
2019-01-17T04:06:13.419Z,7.80
2019-01-17T04:08:39.469Z,7.80
2019-01-17T04:11:05.861Z,7.80
2019-01-17T04:13:31.904Z,7.80
2019-01-17T04:15:57.944Z,7.80
2019-01-17T04:18:23.999Z,7.70
2019-01-17T04:20:50.323Z,7.70
2019-01-17T04:23:16.376Z,7.70
2019-01-17T04:25:42.677Z,7.70
2019-01-17T04:28:08.733Z,7.70
2019-01-17T04:30:34.771Z,7.70
2019-01-17T04:33:00.807Z,7.70
2019-01-17T04:35:26.871Z,7.70
2019-01-17T04:37:52.916Z,7.70
2019-01-17T04:40:18.964Z,7.70
2019-01-17T04:42:45.025Z,7.70
2019-01-17T04:45:30.953Z,7.70
2019-01-17T04:47:57.556Z,7.80
2019-01-17T04:50:23.598Z,7.70
2019-01-17T04:52:49.640Z,7.70
2019-01-17T04:55:16.147Z,7.60
2019-01-17T04:57:42.187Z,7.60
2019-01-17T05:00:14.270Z,7.60
2019-01-17T05:02:40.320Z,7.60
2019-01-17T05:05:06.872Z,7.60
2019-01-17T05:07:32.925Z,7.50
2019-01-17T05:09:59.003Z,7.50
2019-01-17T05:12:25.040Z,7.50
2019-01-17T05:14:51.075Z,7.40
2019-01-17T05:17:17.135Z,7.40
2019-01-17T05:19:43.184Z,7.40
2019-01-17T05:22:09.473Z,7.40
2019-01-17T05:24:35.535Z,7.30
2019-01-17T05:29:28.010Z,7.30
2019-01-17T05:31:54.069Z,7.30
2019-01-17T05:34:20.107Z,7.30
2019-01-17T05:36:46.414Z,7.40
2019-01-17T05:39:12.472Z,7.40
2019-01-17T05:41:38.551Z,7.40
2019-01-17T05:44:04.600Z,7.50
2019-01-17T05:46:30.639Z,7.50
2019-01-17T05:48:56.699Z,7.60
2019-01-17T05:51:22.739Z,7.60
2019-01-17T05:53:48.786Z,7.70
2019-01-17T05:56:14.855Z,7.70
2019-01-17T05:58:40.910Z,7.80
2019-01-17T06:01:06.956Z,7.90
2019-01-17T06:03:33.007Z,7.90
2019-01-17T06:05:59.047Z,7.90
2019-01-17T06:08:25.091Z,8.00
2019-01-17T06:10:51.144Z,8.00
2019-01-17T06:13:17.486Z,8.00
2019-01-17T06:15:44.043Z,8.00
2019-01-17T06:18:10.340Z,8.00
2019-01-17T06:20:36.388Z,8.00
2019-01-17T06:23:02.813Z,8.00
2019-01-17T06:25:28.855Z,8.00
2019-01-17T06:27:54.896Z,8.00
2019-01-17T06:30:20.956Z,8.00
2019-01-17T06:32:47.305Z,8.00
2019-01-17T06:35:13.547Z,8.00
2019-01-17T06:37:39.604Z,8.00
2019-01-17T06:40:09.775Z,8.00
2019-01-17T06:42:37.534Z,8.00
2019-01-17T06:45:04.692Z,7.90
2019-01-17T06:47:30.745Z,7.90
2019-01-17T06:49:56.791Z,7.90
2019-01-17T06:52:22.974Z,7.90
2019-01-17T06:54:49.013Z,7.80
2019-01-17T06:57:15.055Z,7.80
2019-01-17T06:59:41.149Z,7.80
2019-01-17T07:02:07.184Z,7.80
2019-01-17T07:04:33.602Z,7.80
2019-01-17T07:06:59.656Z,7.70
2019-01-17T07:09:25.707Z,7.70
2019-01-17T07:11:51.825Z,7.70
2019-01-17T07:14:17.874Z,7.70
2019-01-17T07:16:44.217Z,7.70
2019-01-17T07:19:10.288Z,7.70
2019-01-17T07:21:36.333Z,7.60
2019-01-17T07:24:02.886Z,7.60
2019-01-17T07:26:29.239Z,7.60
2019-01-17T07:28:55.566Z,7.50
2019-01-17T07:31:21.601Z,7.50
2019-01-17T07:33:47.664Z,7.50
2019-01-17T07:36:13.722Z,7.50
2019-01-17T07:38:39.767Z,7.40
2019-01-17T07:41:05.839Z,7.50
2019-01-17T07:43:31.898Z,7.40
2019-01-17T07:45:57.951Z,7.40
2019-01-17T07:48:23.991Z,7.40
2019-01-17T07:50:50.216Z,7.40
2019-01-17T07:53:16.311Z,7.40
2019-01-17T07:55:47.621Z,7.40
2019-01-17T07:58:10.592Z,7.40
2019-01-17T08:00:36.667Z,7.40
2019-01-17T08:03:03.012Z,7.40
2019-01-17T08:05:29.168Z,7.40
2019-01-17T08:07:55.224Z,7.40
2019-01-17T08:10:21.264Z,7.40
2019-01-17T08:12:48.071Z,7.40
2019-01-17T08:15:15.027Z,7.40
2019-01-17T08:17:41.190Z,7.40
2019-01-17T08:20:13.508Z,7.50
2019-01-17T08:22:39.565Z,7.50
2019-01-17T08:25:08.532Z,7.50
2019-01-17T08:27:34.598Z,7.60
2019-01-17T08:30:00.651Z,7.60
2019-01-17T08:32:26.695Z,7.60
2019-01-17T08:34:52.820Z,7.70
2019-01-17T08:37:18.863Z,7.70
2019-01-17T08:39:44.912Z,7.80
2019-01-17T08:42:10.972Z,7.80
2019-01-17T08:44:37.330Z,7.90
2019-01-17T08:47:03.480Z,7.90
2019-01-17T08:49:29.644Z,8.00
2019-01-17T08:51:55.693Z,8.00
2019-01-17T08:54:21.747Z,8.10
2019-01-17T08:56:47.888Z,8.10
2019-01-17T08:59:14.396Z,8.10
2019-01-17T09:01:40.439Z,8.20
2019-01-17T09:04:06.531Z,8.30
2019-01-17T09:06:32.567Z,8.30
2019-01-17T09:08:58.992Z,8.30
2019-01-17T09:11:25.325Z,8.40
2019-01-17T09:13:51.651Z,8.40
2019-01-17T09:16:17.691Z,8.40
2019-01-17T09:18:43.753Z,8.50
2019-01-17T09:21:09.788Z,8.50
2019-01-17T09:23:35.888Z,8.50
2019-01-17T09:26:07.535Z,8.50
2019-01-17T09:28:30.247Z,8.60
2019-01-17T09:30:56.287Z,8.60
2019-01-17T09:33:22.370Z,8.60
2019-01-17T09:35:48.576Z,8.60
2019-01-17T09:38:14.629Z,8.60
2019-01-17T09:40:40.696Z,8.60
2019-01-17T09:43:06.763Z,8.70
2019-01-17T09:45:33.128Z,8.60
2019-01-17T09:47:59.272Z,8.60
2019-01-17T09:50:25.345Z,8.60
2019-01-17T09:52:51.484Z,8.60
2019-01-17T09:55:17.560Z,8.50
2019-01-17T09:57:43.956Z,8.50
2019-01-17T10:00:18.921Z,8.40
2019-01-17T10:02:45.069Z,8.30
2019-01-17T10:05:11.141Z,8.30
2019-01-17T10:07:37.296Z,8.30
2019-01-17T10:10:07.171Z,8.20
2019-01-17T10:12:33.508Z,8.20
2019-01-17T10:14:59.551Z,8.10
2019-01-17T10:17:29.412Z,8.10
2019-01-17T10:20:11.172Z,8.10
2019-01-17T10:23:02.576Z,7.90
2019-01-17T10:25:47.447Z,7.80
2019-01-17T10:28:20.063Z,7.60
2019-01-17T10:30:59.507Z,7.50
2019-01-17T10:33:32.359Z,7.30
2019-01-17T10:36:25.309Z,7.20
2019-01-17T10:38:59.067Z,7.10
2019-01-17T10:41:28.948Z,7.00
2019-01-17T10:44:01.952Z,6.90
2019-01-17T10:46:44.147Z,6.90
2019-01-17T10:49:20.263Z,6.80
2019-01-17T10:52:10.547Z,6.80
2019-01-17T10:54:40.411Z,6.80
2019-01-17T10:57:16.063Z,6.80
2019-01-17T10:59:51.964Z,6.80
2019-01-17T11:02:42.773Z,6.80
2019-01-17T11:05:24.643Z,6.80
2019-01-17T11:08:06.847Z,6.80
2019-01-17T11:10:59.656Z,6.80
2019-01-17T11:13:32.808Z,6.80
2019-01-17T11:16:08.955Z,6.80
2019-01-17T11:19:01.467Z,6.90
2019-01-17T11:21:40.592Z,6.90
2019-01-17T11:24:10.456Z,6.90
2019-01-17T11:26:59.971Z,6.90
2019-01-17T11:29:29.831Z,6.90
2019-01-17T11:32:21.360Z,6.90
2019-01-17T11:35:09.057Z,6.90
2019-01-17T11:37:44.671Z,6.90
2019-01-17T11:40:33.132Z,6.90
2019-01-17T11:43:02.967Z,6.90
2019-01-17T11:45:35.875Z,6.90
2019-01-17T11:48:14.872Z,6.90
2019-01-17T11:50:53.037Z,6.90
2019-01-17T11:53:38.259Z,6.90
2019-01-17T11:56:11.183Z,6.90
2019-01-17T11:58:50.283Z,6.90
2019-01-17T12:01:23.803Z,7.00
2019-01-17T12:04:02.412Z,6.90
2019-01-17T12:06:28.756Z,6.90
2019-01-17T12:08:54.793Z,6.90
2019-01-17T12:11:21.113Z,6.80
2019-01-17T12:13:47.174Z,6.80
2019-01-17T12:16:13.200Z,6.80
2019-01-17T12:18:39.236Z,6.70
2019-01-17T12:21:05.611Z,6.70
2019-01-17T12:23:31.661Z,6.70
2019-01-17T12:25:57.694Z,6.70
2019-01-17T12:28:23.758Z,6.60
2019-01-17T12:30:49.795Z,6.70
2019-01-17T12:33:15.837Z,6.70
2019-01-17T12:35:41.889Z,6.70
2019-01-17T12:38:07.944Z,6.70
2019-01-17T12:40:33.987Z,6.70
2019-01-17T12:43:00.025Z,6.80
2019-01-17T12:45:26.120Z,6.80
2019-01-17T12:47:52.175Z,6.80
2019-01-17T12:50:18.502Z,6.80
2019-01-17T12:52:44.574Z,6.80
2019-01-17T12:55:11.107Z,7.00
2019-01-17T12:57:37.143Z,6.80
2019-01-17T13:00:10.009Z,6.90
2019-01-17T13:02:36.049Z,6.90
2019-01-17T13:05:03.092Z,7.00
2019-01-17T13:07:29.159Z,7.00
2019-01-17T13:09:55.198Z,7.00
2019-01-17T13:12:21.238Z,7.00
2019-01-17T13:14:47.291Z,7.00
2019-01-17T13:17:13.435Z,7.00
2019-01-17T13:19:40.899Z,7.10
2019-01-17T13:22:07.239Z,7.10
2019-01-17T13:24:33.281Z,7.10
2019-01-17T13:27:00.913Z,7.10
2019-01-17T13:29:27.574Z,7.10
2019-01-17T13:31:53.619Z,7.10
2019-01-17T13:34:19.661Z,7.10
2019-01-17T13:36:45.704Z,7.10
2019-01-17T13:39:11.755Z,7.20
2019-01-17T13:41:37.900Z,7.20
2019-01-17T13:44:04.053Z,7.10
2019-01-17T13:46:30.466Z,6.80
2019-01-17T13:48:56.516Z,6.50
2019-01-17T13:51:22.560Z,6.20
2019-01-17T13:53:48.624Z,6.00
2019-01-17T13:56:14.948Z,5.80
2019-01-17T13:58:41.012Z,5.60
2019-01-17T14:01:07.044Z,5.50
2019-01-17T14:03:33.174Z,5.40
2019-01-17T14:05:59.228Z,5.40
2019-01-17T14:08:25.271Z,5.30
2019-01-17T14:10:51.324Z,5.30
2019-01-17T14:13:17.828Z,5.30
2019-01-17T14:15:43.867Z,5.30
2019-01-17T14:18:09.908Z,5.40
2019-01-17T14:20:36.309Z,5.40
2019-01-17T14:23:02.675Z,5.40
2019-01-17T14:25:28.716Z,5.50
2019-01-17T14:27:54.771Z,5.60
2019-01-17T14:30:25.436Z,5.60
2019-01-17T14:32:51.517Z,5.70
2019-01-17T14:35:17.627Z,5.80
2019-01-17T14:37:43.669Z,5.80
2019-01-17T14:40:09.723Z,5.90
2019-01-17T14:42:35.958Z,5.90
2019-01-17T14:45:05.241Z,6.00
2019-01-17T14:47:31.278Z,6.00
2019-01-17T14:49:57.592Z,6.10
2019-01-17T14:52:23.628Z,6.10
2019-01-17T14:54:49.679Z,6.10
2019-01-17T14:57:20.567Z,6.10
2019-01-17T14:59:43.786Z,6.10
2019-01-17T15:02:09.828Z,6.10
2019-01-17T15:04:35.933Z,6.00
2019-01-17T15:07:01.979Z,6.00
2019-01-17T15:09:28.029Z,6.00
2019-01-17T15:11:54.079Z,5.90
2019-01-17T15:14:20.115Z,5.90
2019-01-17T15:16:46.512Z,5.90
2019-01-17T15:19:12.549Z,5.80
2019-01-17T15:21:38.596Z,5.80
2019-01-17T15:24:04.648Z,5.80
2019-01-17T15:26:30.691Z,5.80
2019-01-17T15:28:57.030Z,5.80
2019-01-17T15:31:23.085Z,5.80
2019-01-17T15:33:49.124Z,5.80
2019-01-17T15:36:15.290Z,5.80
2019-01-17T15:38:41.355Z,5.80
2019-01-17T15:41:07.399Z,5.80
2019-01-17T15:43:33.484Z,5.80
2019-01-17T15:45:59.544Z,5.80
2019-01-17T15:48:25.966Z,5.80
2019-01-17T15:50:52.376Z,5.80
2019-01-17T15:53:18.696Z,5.80
2019-01-17T15:55:44.762Z,5.80
2019-01-17T15:58:11.151Z,5.80
2019-01-17T16:00:37.194Z,6.00
2019-01-17T16:03:03.235Z,5.70
2019-01-17T16:05:29.289Z,5.70
2019-01-17T16:07:55.339Z,5.70
2019-01-17T16:10:21.416Z,5.60
2019-01-17T16:12:47.506Z,5.60
2019-01-17T16:15:16.055Z,5.60
2019-01-17T16:17:42.412Z,5.60
2019-01-17T16:20:11.168Z,5.50
2019-01-17T16:22:37.528Z,5.50
2019-01-17T16:25:06.971Z,5.50
2019-01-17T16:27:34.805Z,5.60
2019-01-17T16:30:03.403Z,5.60
2019-01-17T16:32:29.457Z,5.60
2019-01-17T16:34:55.499Z,5.60
2019-01-17T16:37:21.556Z,5.60
2019-01-17T16:39:47.886Z,5.60
2019-01-17T16:42:13.921Z,5.60
2019-01-17T16:44:39.960Z,5.60
2019-01-17T16:47:06.363Z,5.70
2019-01-17T16:49:32.707Z,5.70
2019-01-17T16:52:12.123Z,5.70
2019-01-17T16:54:38.200Z,5.60
2019-01-17T16:57:04.353Z,5.70
2019-01-17T16:59:30.388Z,5.80
2019-01-17T17:01:56.736Z,5.80
2019-01-17T17:04:22.793Z,5.80
2019-01-17T17:06:48.829Z,5.80
2019-01-17T17:09:14.879Z,5.80
2019-01-17T17:11:40.932Z,5.70
2019-01-17T17:14:06.975Z,5.70
2019-01-17T17:16:33.037Z,5.70
2019-01-17T17:18:59.082Z,5.70
2019-01-17T17:21:25.449Z,5.70
2019-01-17T17:23:51.508Z,5.70
2019-01-17T17:26:17.544Z,5.70
2019-01-17T17:28:49.745Z,5.70
2019-01-17T17:31:15.801Z,5.70
2019-01-17T17:33:41.839Z,5.70
2019-01-17T17:36:07.889Z,5.60
2019-01-17T17:38:33.961Z,5.60
2019-01-17T17:41:00.374Z,5.60
2019-01-17T17:43:26.415Z,5.60
2019-01-17T17:45:52.463Z,5.60
2019-01-17T17:48:18.505Z,5.60
2019-01-17T17:50:44.621Z,5.60
2019-01-17T17:53:10.655Z,5.50
2019-01-17T17:55:36.702Z,5.50
2019-01-17T17:58:03.260Z,5.50
2019-01-17T18:00:47.850Z,5.40
2019-01-17T18:03:13.946Z,5.40
2019-01-17T18:05:40.000Z,5.40
2019-01-17T18:08:06.155Z,5.30
2019-01-17T18:10:32.195Z,5.30
2019-01-17T18:12:58.247Z,5.30
2019-01-17T18:15:24.291Z,5.30
2019-01-17T18:17:50.333Z,5.30
2019-01-17T18:20:16.995Z,5.30
2019-01-17T18:22:43.039Z,5.30
2019-01-17T18:25:09.879Z,5.30
2019-01-17T18:27:35.936Z,5.20
2019-01-17T18:30:05.784Z,5.20
2019-01-17T18:32:31.819Z,5.20
2019-01-17T18:34:57.871Z,5.10
2019-01-17T18:37:24.027Z,5.10
2019-01-17T18:39:50.280Z,5.00
2019-01-17T18:42:16.331Z,5.00
2019-01-17T18:44:42.579Z,4.90
2019-01-17T18:47:08.619Z,4.90
2019-01-17T18:49:35.024Z,4.80
2019-01-17T18:52:01.071Z,4.80
2019-01-17T18:54:27.107Z,4.80
2019-01-17T18:56:53.160Z,4.80
2019-01-17T18:59:19.528Z,4.80
2019-01-17T19:01:45.695Z,4.80
2019-01-17T19:04:11.728Z,4.80
2019-01-17T19:06:37.768Z,4.80
2019-01-17T19:09:05.844Z,4.80
2019-01-17T19:11:31.884Z,4.80
2019-01-17T19:13:57.919Z,4.80
2019-01-17T19:16:23.983Z,4.70
2019-01-17T19:18:50.031Z,4.70
2019-01-17T19:21:16.073Z,4.70
2019-01-17T19:23:42.428Z,4.70
2019-01-17T19:26:08.467Z,4.60
2019-01-17T19:28:34.775Z,4.60
2019-01-17T19:31:00.823Z,4.60
2019-01-17T19:33:26.887Z,4.50
2019-01-17T19:35:52.940Z,4.50
2019-01-17T19:38:18.987Z,4.50
2019-01-17T19:40:45.031Z,4.50
2019-01-17T19:43:11.177Z,4.40
2019-01-17T19:48:04.292Z,4.40
2019-01-17T19:50:32.845Z,4.40
2019-01-17T19:52:58.895Z,4.30
2019-01-17T19:55:24.944Z,4.30
2019-01-17T19:57:51.184Z,4.30
2019-01-17T20:00:19.074Z,4.30
2019-01-17T20:02:45.552Z,4.30
2019-01-17T20:05:14.702Z,4.20
2019-01-17T20:07:40.963Z,4.30
2019-01-17T20:10:10.816Z,4.20
2019-01-17T20:12:36.839Z,4.20
2019-01-17T20:15:05.004Z,4.20
2019-01-17T20:17:31.040Z,4.20
2019-01-17T20:19:57.089Z,4.20
2019-01-17T20:22:23.248Z,4.10
2019-01-17T20:24:49.296Z,4.10
2019-01-17T20:27:15.356Z,4.10
2019-01-17T20:29:41.420Z,4.00
2019-01-17T20:32:07.463Z,4.00
2019-01-17T20:34:33.515Z,4.00
2019-01-17T20:36:59.558Z,4.00
2019-01-17T20:39:25.617Z,4.00
2019-01-17T20:41:51.764Z,4.00
2019-01-17T20:44:17.813Z,3.90
2019-01-17T20:46:43.875Z,3.90
2019-01-17T20:49:09.919Z,3.90
2019-01-17T20:51:35.959Z,3.90
2019-01-17T20:54:02.023Z,3.90
2019-01-17T20:56:28.404Z,3.90
2019-01-17T20:58:54.470Z,3.90
2019-01-17T21:01:29.959Z,3.80
2019-01-17T21:03:56.001Z,3.80
2019-01-17T21:06:22.161Z,3.90
2019-01-17T21:08:48.224Z,3.90
2019-01-17T21:11:14.366Z,3.80
2019-01-17T21:13:40.428Z,3.80
2019-01-17T21:16:06.471Z,3.80
2019-01-17T21:18:32.511Z,3.80
2019-01-17T21:20:58.575Z,3.80
2019-01-17T21:23:24.612Z,3.80
2019-01-17T21:25:50.657Z,3.80
2019-01-17T21:28:17.039Z,3.80
2019-01-17T21:30:43.079Z,3.80
2019-01-17T21:33:09.121Z,3.80
2019-01-17T21:35:35.171Z,3.80
2019-01-17T21:38:01.211Z,3.80
2019-01-17T21:40:27.279Z,3.80
2019-01-17T21:42:53.328Z,3.70
2019-01-17T21:45:19.479Z,3.70
2019-01-17T21:47:45.723Z,3.80
2019-01-17T21:50:26.789Z,3.70
2019-01-17T21:52:52.937Z,3.80
2019-01-17T21:55:19.270Z,3.70
2019-01-17T21:57:45.323Z,3.70
2019-01-17T22:00:17.453Z,3.70
2019-01-17T22:02:43.499Z,3.80
2019-01-17T22:05:09.984Z,3.70
2019-01-17T22:07:36.123Z,3.70
2019-01-17T22:10:05.440Z,3.80
2019-01-17T22:12:31.483Z,3.70
2019-01-17T22:14:57.528Z,3.80
2019-01-17T22:17:23.579Z,3.70
2019-01-17T22:19:49.619Z,3.80
2019-01-17T22:22:15.672Z,3.70
2019-01-17T22:24:41.737Z,3.70
2019-01-17T22:27:08.111Z,3.70
2019-01-17T22:29:34.164Z,3.70
2019-01-17T22:32:00.203Z,3.70
2019-01-17T22:34:26.272Z,3.70
2019-01-17T22:36:52.310Z,3.70
2019-01-17T22:39:18.349Z,3.70
2019-01-17T22:41:44.413Z,3.70
2019-01-17T22:44:10.662Z,3.70
2019-01-17T22:46:36.691Z,3.70
2019-01-17T22:49:02.839Z,3.60
2019-01-17T22:51:29.163Z,3.60
2019-01-17T22:53:55.216Z,3.60
2019-01-17T22:56:21.259Z,3.60
2019-01-17T22:58:47.310Z,3.60
2019-01-17T23:01:15.272Z,3.60
2019-01-17T23:03:41.341Z,3.70
2019-01-17T23:06:07.389Z,3.70
2019-01-17T23:08:33.435Z,3.70
2019-01-17T23:10:59.479Z,3.70
2019-01-17T23:13:25.540Z,3.70
2019-01-17T23:15:51.587Z,3.80
2019-01-17T23:18:17.650Z,3.80
2019-01-17T23:20:43.700Z,3.80
2019-01-17T23:23:09.983Z,3.80
2019-01-17T23:25:36.048Z,3.80
2019-01-17T23:28:02.099Z,3.80
2019-01-17T23:30:28.143Z,3.80
2019-01-17T23:32:54.187Z,3.80
2019-01-17T23:35:20.248Z,3.80
2019-01-17T23:37:46.297Z,3.80
2019-01-17T23:40:14.458Z,3.70
2019-01-17T23:42:40.526Z,3.70
2019-01-17T23:45:07.471Z,3.70
2019-01-17T23:47:33.719Z,3.70
2019-01-17T23:49:59.782Z,3.60
2019-01-17T23:52:26.191Z,3.70
2019-01-17T23:54:52.521Z,3.60
2019-01-17T23:57:18.585Z,3.60
2019-01-17T23:59:44.643Z,3.60
